Terminal Aerodrome Forecast
Issued by NWS Medford, OR

Home | Current Version | Previous Version | Text Only | Print | Product List | Glossary On
Versions: 1 2 3 4 5 6 7 8 9 10 11 12 13 14 15 16 17 18 19 20 21 22 23 24
000
FTUS46 KMFR 051305 AAD
TAFMFR
TAF AMD
KMFR 051305Z 0513/0612 00000KT 1/2SM FZFG BKN005
     FM051700 VRB02KT 4SM BR SCT003 BKN006
     FM052000 VRB03KT P6SM VCSH BKN035 OVC070
     FM060300 30003KT P6SM -SHRA SCT015 BKN025 OVC035
     FM061100 00000KT 5SM -SHRASN SCT005 OVC010=

USA.gov is the U.S. government's official web portal to all federal, state and local government web resources and services.